Latest Coastal Weather Observations for Wyndham Airport

IDW60701

Issued at 3:42 am WST Thursday 25 August 2016 (issued every 10 minutes, with the page automatically refreshed every 10 minutes)

About coastal observations | Map of coastal stations | Coastal observations for WA | Marine services | Other Formats
Station Details ID: 001006 Name: WYNDHAM AERO Lat: -15.51 Lon: 128.15 Height: 3.8 m
Data from the previous 72 hours. | See also: Recent months at Wyndham Airport
Date/Time
WST
Temp
°C
Wind Pressure Rain since
9am
mm
Weather Cloud Vis
km
Sea
Height
m
Swell
Dir  Spd
kts
Gust
kts
hPa Trend Height
m
Period
s
Dir
25/03:30am 16.6 SW 4 6 1010.3 - 0.0 - - - - - - -
25/03:00am 18.5 NE 2 4 1009.9 - 0.0 - - - - - - -
25/02:30am 17.2 SSW 3 4 1009.8 - 0.0 - - - - - - -
25/02:00am 18.9 NW 3 5 1009.7 - 0.0 - - - - - - -
25/01:30am 17.9 ENE 5 8 1009.7 - 0.0 - - - - - - -
25/01:00am 17.8 E 6 6 1009.6 - 0.0 - - - - - - -
25/12:30am 17.2 ESE 5 6 1009.8 - 0.0 - - - - - - -
25/12:00am 17.0 ESE 5 7 1010.1 - 0.0 - - - - - - -
 
Date/Time
WST
Temp
°C
Wind Pressure Rain since
9am
mm
Weather Cloud Vis
km
Sea
Height
m
Swell
Dir  Spd
kts
Gust
kts
hPa Trend Height
m
Period
s
Dir
24/11:30pm 20.3 CALM 0 0 1010.4 - 0.0 - - - - - - -
24/11:00pm 20.2 CALM 0 3 1010.5 - 0.0 - - - - - - -
24/10:30pm 19.1 SW 1 5 1010.5 - 0.0 - - - - - - -
24/10:00pm 19.9 SSW 3 7 1010.5 - 0.0 - - - - - - -
24/09:30pm 21.3 N 2 4 1010.5 - 0.0 - - - - - - -
24/09:00pm 22.3 E 7 8 1010.5 - 0.0 - - - - - - -
24/08:30pm 19.4 E 7 8 1010.5 - 0.0 - - - - - - -
24/08:00pm 23.2 ENE 6 7 1010.5 - 0.0 - - - - - - -
24/07:30pm 24.2 ENE 6 7 1010.4 - 0.0 - - - - - - -
24/07:00pm 24.4 E 5 6 1010.2 - 0.0 - - - - - - -
24/06:30pm 24.9 E 5 6 1009.9 - 0.0 - - - - - - -
24/06:00pm 26.0 E 5 6 1009.4 - 0.0 - - - - - - -
24/05:30pm 27.8 E 6 8 1009.0 - 0.0 - - - - - - -
24/05:00pm 29.8 ESE 7 9 1008.7 - 0.0 - - - - - - -
24/04:30pm 31.6 SE 5 9 1008.4 - 0.0 - - - - - - -
24/04:00pm 32.4 NE 4 6 1008.1 - 0.0 - - - - - - -
24/03:30pm 32.5 N 1 5 1007.9 - 0.0 - - - - - - -
24/03:00pm 32.4 S 5 10 1007.8 - 0.0 - - - - - - -
24/02:30pm 32.4 SSW 7 10 1007.9 - 0.0 - - - - - - -
24/02:00pm 32.3 SSW 4 7 1008.1 - 0.0 - - - - - - -
24/01:30pm 32.1 E 7 13 1008.4 - 0.0 - - - - - - -
24/01:00pm 31.7 SSE 8 12 1009.1 - 0.0 - - - - - - -
24/12:30pm 32.0 S 6 11 1009.5 - 0.0 - - - - - - -
24/12:00pm 31.5 ESE 6 9 1010.0 - 0.0 - - - - - - -
24/11:30am 30.9 ENE 6 11 1010.5 - 0.0 - - - - - - -
24/11:00am 30.7 SE 8 12 1011.0 - 0.0 - - - - - - -
24/10:30am 29.8 SSE 9 14 1011.6 - 0.0 - - - - - - -
24/10:00am 29.5 SE 11 17 1012.0 - 0.0 - - - - - - -
24/09:30am 29.0 SE 11 15 1012.3 - 0.0 - - - - - - -
24/09:00am 28.4 SE 14 19 1012.6 - 0.0 - - - - - - -
24/08:30am 27.6 SE 13 18 1012.8 - 0.0 - - - - - - -
24/08:00am 26.7 SE 9 15 1012.6 - 0.0 - - - - - - -
24/07:30am 23.4 CALM 0 3 1012.5 - 0.0 - - - - - - -
24/07:00am 21.0 CALM 0 0 1012.3 - 0.0 - - - - - - -
24/06:30am 18.3 CALM 0 0 1012.1 - 0.0 - - - - - - -
24/06:00am 16.3 CALM 0 0 1011.7 - 0.0 - - - - - - -
24/05:30am 16.4 CALM 0 4 1011.4 - 0.0 - - - - - - -
24/05:00am 17.7 NW 3 4 1010.8 - 0.0 - - - - - - -
24/04:30am 18.5 WNW 3 4 1010.4 - 0.0 - - - - - - -
24/04:00am 18.1 WNW 3 4 1010.1 - 0.0 - - - - - - -
24/03:30am 18.7 WNW 5 6 1009.8 - 0.0 - - - - - - -
24/03:00am 19.0 CALM 0 0 1009.7 - 0.0 - - - - - - -
24/02:30am 19.2 CALM 0 0 1009.4 - 0.0 - - - - - - -
24/02:00am 19.9 CALM 0 3 1009.0 - 0.0 - - - - - - -
24/01:30am 20.1 ESE 2 4 1008.9 - 0.0 - - - - - - -
24/01:00am 20.1 ESE 7 7 1008.7 - 0.0 - - - - - - -
24/12:30am 20.9 E 6 7 1008.6 - 0.0 - - - - - - -
24/12:00am 21.0 E 7 7 1008.6 - 0.0 - - - - - - -
 
Date/Time
WST
Temp
°C
Wind Pressure Rain since
9am
mm
Weather Cloud Vis
km
Sea
Height
m
Swell
Dir  Spd
kts
Gust
kts
hPa Trend Height
m
Period
s
Dir
23/11:30pm 21.5 ESE 7 9 1008.7 - 0.0 - - - - - - -
23/11:00pm 21.5 ESE 9 10 1008.6 - 0.0 - - - - - - -
23/10:30pm 21.9 ESE 9 10 1008.6 - 0.0 - - - - - - -
23/10:00pm 22.6 ESE 7 9 1008.6 - 0.0 - - - - - - -
23/09:30pm 24.7 ENE 4 6 1008.6 - 0.0 - - - - - - -
23/09:00pm 23.9 E 5 6 1008.4 - 0.0 - - - - - - -
23/08:30pm 25.7 SSE 4 7 1008.2 - 0.0 - - - - - - -
23/08:00pm 25.9 SE 3 5 1008.0 - 0.0 - - - - - - -
23/07:30pm 26.4 N 11 15 1007.5 - 0.0 - - - - - - -
23/07:00pm 26.5 N 11 16 1007.3 - 0.0 - - - - - - -
23/06:30pm 26.9 N 14 19 1007.0 - 0.0 - - - - - - -
23/06:00pm 27.5 N 14 19 1006.7 - 0.0 - - - - - - -
23/05:30pm 28.3 N 14 18 1006.3 - 0.0 - - - - - - -
23/05:00pm 30.5 N 9 14 1005.9 - 0.0 - - - - - - -
23/04:30pm 32.8 WSW 7 10 1005.7 - 0.0 - - - - - - -
23/04:00pm 33.6 SW 7 10 1005.6 - 0.0 - - - - - - -
23/03:30pm 33.7 WSW 10 15 1005.5 - 0.0 - - - - - - -
23/03:00pm 33.9 WSW 13 20 1005.5 - 0.0 - - - - - - -
23/02:30pm 33.6 WSW 10 20 1005.6 - 0.0 - - - - - - -
23/02:00pm 33.3 W 13 19 1005.8 - 0.0 - - - - - - -
23/01:30pm 33.6 WSW 13 19 1006.2 - 0.0 - - - - - - -
23/01:00pm 32.8 W 10 16 1006.6 - 0.0 - - - - - - -
23/12:30pm 32.8 WSW 15 22 1006.9 - 0.0 - - - - - - -
23/12:00pm 32.3 WSW 13 20 1007.6 - 0.0 - - - - - - -
23/11:30am 32.0 WSW 13 19 1008.0 - 0.0 - - - - - - -
23/11:00am 32.5 W 10 18 1008.6 - 0.0 - - - - - - -
23/10:30am 30.9 WSW 9 12 1009.2 - 0.0 - - - - - - -
23/10:00am 30.2 W 10 15 1009.7 - 0.0 - - - - - - -
23/09:30am 29.4 W 10 14 1009.9 - 0.0 - - - - - - -
23/09:00am 28.7 WSW 9 12 1010.1 - 0.0 - - - - - - -
23/08:30am 27.9 W 10 14 1010.2 - 0.0 - - - - - - -
23/08:00am 26.7 WNW 12 16 1010.1 - 0.0 - - - - - - -
23/07:30am 25.4 W 11 12 1009.9 - 0.0 - - - - - - -
23/07:00am 24.1 WSW 7 10 1009.9 - 0.0 - - - - - - -
23/06:30am 23.2 W 6 8 1009.7 - 0.0 - - - - - - -
23/06:00am 21.7 WNW 6 7 1009.4 - 0.0 - - - - - - -
23/05:30am 20.7 WNW 4 5 1009.0 - 0.0 - - - - - - -
23/05:00am 22.7 SW 6 7 1008.6 - 0.0 - - - - - - -
23/04:30am 23.6 SW 5 8 1008.3 - 0.0 - - - - - - -
23/04:00am 23.2 WSW 4 5 1008.0 - 0.0 - - - - - - -
23/03:30am 21.6 CALM 0 0 1008.0 - 0.0 - - - - - - -
23/03:00am 23.0 NW 1 3 1007.9 - 0.0 - - - - - - -
23/02:30am 22.7 WNW 4 5 1008.0 - 0.0 - - - - - - -
23/02:00am 23.5 WSW 3 5 1007.9 - 0.0 - - - - - - -
23/01:30am 25.0 W 8 10 1008.0 - 0.0 - - - - - - -
23/01:00am 24.8 W 7 9 1008.0 - 0.0 - - - - - - -
23/12:30am 25.3 NW 7 9 1008.1 - 0.0 - - - - - - -
23/12:00am 25.2 NW 6 7 1008.2 - 0.0 - - - - - - -
 
Date/Time
WST
Temp
°C
Wind Pressure Rain since
9am
mm
Weather Cloud Vis
km
Sea
Height
m
Swell
Dir  Spd
kts
Gust
kts
hPa Trend Height
m
Period
s
Dir
22/11:30pm 25.8 WNW 6 7 1008.3 - 0.0 - - - - - - -
22/11:00pm 26.8 NW 8 10 1008.1 - 0.0 - - - - - - -
22/10:30pm 27.6 NW 11 15 1008.2 - 0.0 - - - - - - -
22/10:00pm 28.4 NW 13 18 1008.1 - 0.0 - - - - - - -
22/09:30pm 27.9 NNW 9 13 1008.0 - 0.0 - - - - - - -
22/09:00pm 27.4 NNW 8 12 1007.9 - 0.0 - - - - - - -
22/08:30pm 27.0 N 7 11 1007.9 - 0.0 - - - - - - -
22/08:00pm 26.9 N 10 15 1007.7 - 0.0 - - - - - - -
22/07:30pm 26.9 N 10 14 1007.5 - 0.0 - - - - - - -
22/07:00pm 27.0 NNE 12 16 1006.9 - 0.0 - - - - - - -
22/06:30pm 27.2 NNE 14 19 1006.3 - 0.0 - - - - - - -
22/06:00pm 27.7 NNE 14 21 1005.9 - 0.0 - - - - - - -
22/05:30pm 28.0 N 13 17 1005.5 - 0.0 - - - - - - -
22/05:00pm 28.9 N 11 17 1005.3 - 0.0 - - - - - - -
22/04:30pm 29.6 N 17 22 1005.1 - 0.0 - - - - - - -
22/04:00pm 30.2 NNE 15 20 1004.8 - 0.0 - - - - - - -
22/03:30pm 31.3 N 15 21 1005.0 - 0.0 - - - - - - -
22/03:00pm 31.1 N 14 23 1005.1 - 0.0 - - - - - - -
22/02:30pm 32.5 N 13 19 1005.0 - 0.0 - - - - - - -
22/02:00pm 33.6 NNW 12 18 1004.9 - 0.0 - - - - - - -
22/01:30pm 34.4 NNW 10 17 1005.1 - 0.0 - - - - - - -
22/01:00pm 34.8 NW 9 17 1005.6 - 0.0 - - - - - - -
22/12:30pm 34.2 WNW 6 11 1006.2 - 0.0 - - - - - - -
22/12:00pm 33.6 WSW 9 13 1006.7 - 0.0 - - - - - - -
22/11:30am 33.3 W 9 13 1007.4 - 0.0 - - - - - - -
22/11:00am 32.0 WNW 10 16 1008.1 - 0.0 - - - - - - -
22/10:30am 31.4 W 10 15 1008.6 - 0.0 - - - - - - -
22/10:00am 30.5 W 7 10 1009.1 - 0.0 - - - - - - -
22/09:30am 30.9 W 10 14 1009.5 - 0.0 - - - - - - -
22/09:00am 29.5 W 12 15 1009.8 - 0.0 - - - - - - -
22/08:30am 29.0 WNW 11 14 1009.8 - 0.0 - - - - - - -
22/08:00am 28.2 W 10 15 1009.8 - 0.0 - - - - - - -
22/07:30am 26.8 W 7 8 1009.6 - 0.0 - - - - - - -
22/07:00am 25.9 WNW 7 8 1009.5 - 0.0 - - - - - - -
22/06:30am 24.2 NW 5 7 1009.3 - 0.0 - - - - - - -
22/06:00am 23.3 WNW 3 4 1009.2 - 0.0 - - - - - - -
22/05:30am 22.5 WNW 5 5 1009.1 - 0.0 - - - - - - -
22/05:00am 22.6 W 1 4 1008.8 - 0.0 - - - - - - -
22/04:30am 23.1 WSW 3 4 1008.5 - 0.0 - - - - - - -
22/04:00am 23.3 SW 6 7 1008.3 - 0.0 - - - - - - -

Other Formats:

Comma delimited format used in spreadsheet applications
http://www.bom.gov.au/fwo/IDW60701/IDW60701.95214.axf

JavaScript Object Notation format (JSON) in row-major order
http://www.bom.gov.au/fwo/IDW60701/IDW60701.95214.json